Terminal Aerodrome Forecast
Issued by NWS Upton, NY

Home | Current Version | Previous Version | Text Only | Print | Product List | Glossary On
Versions: 1 2 3 4 5 6 7 8 9 10 11 12 13 14 15 16 17 18 19 20 21 22 23 24 25 26 27 28 29 30
000
FTUS41 KOKX 030800 AAA
TAFISP
TAF AMD
KISP 030830Z 0309/0406 32007KT P6SM SCT250
     FM031500 VRB05KT P6SM FEW015 SCT150
     FM031800 17007KT P6SM SCT020 BKN120
     FM032200 17008KT 4SM -SN BKN025 OVC060
     FM040100 18009KT 2SM -SNPL OVC009
     FM040300 19010KT 1SM RA OVC005=

USA.gov is the U.S. government's official web portal to all federal, state and local government web resources and services.